Santiago, Panama
Current Conditions -  °F | °C
As of 10:00 PM on Friday 24 Oct 2014 (Local Time) from MPMG Reporting Station
Scattered Clouds Scattered Clouds  
Wind Chill: 79°   Ceiling: Unl
Heat Index: 83°   Visibility: 6mi
Dew Point: 77°   Wind: 5mph
Humidity: 94%   Direction: 10°N
Pressure: 29.85"   Gusts: NA
Location:  8.1°N, 80.97°W
Report Text: MPMG 250300Z 01004KT 9999 FEW018 SCT090 26/25 Q1011 NOSIG
Loading
Personal Weather Stations






























Interactive Weather Map
Tropical Storm Tracking
New forecast layout! Learn more

10-Day Weather Forecast

Advertisements
Track Severe Weather on mobile